sensor_id;sensor_type;location;lat;lon;timestamp;P1;durP1;ratioP1;P2;durP2;ratioP2
32365;SDS011;18837;46.832;16.838;2023-03-23T00:01:34;2.43;;;2.23;;
32365;SDS011;18837;46.832;16.838;2023-03-23T00:04:02;2.60;;;2.40;;
32365;SDS011;18837;46.832;16.838;2023-03-23T00:06:28;3.00;;;2.70;;
32365;SDS011;18837;46.832;16.838;2023-03-23T00:08:58;2.70;;;2.50;;
32365;SDS011;18837;46.832;16.838;2023-03-23T00:11:33;2.77;;;2.50;;
32365;SDS011;18837;46.832;16.838;2023-03-23T00:14:01;2.47;;;2.27;;
32365;SDS011;18837;46.832;16.838;2023-03-23T00:16:28;2.70;;;2.30;;
32365;SDS011;18837;46.832;16.838;2023-03-23T00:19:07;2.60;;;2.40;;
32365;SDS011;18837;46.832;16.838;2023-03-23T00:21:36;3.33;;;3.03;;
32365;SDS011;18837;46.832;16.838;2023-03-23T00:26:32;2.50;;;2.27;;
32365;SDS011;18837;46.832;16.838;2023-03-23T00:28:59;2.63;;;2.43;;
32365;SDS011;18837;46.832;16.838;2023-03-23T00:31:26;2.70;;;2.30;;
32365;SDS011;18837;46.832;16.838;2023-03-23T00:33:56;2.97;;;2.63;;
32365;SDS011;18837;46.832;16.838;2023-03-23T00:36:23;2.77;;;2.20;;
32365;SDS011;18837;46.832;16.838;2023-03-23T00:38:49;2.90;;;2.60;;
32365;SDS011;18837;46.832;16.838;2023-03-23T00:41:15;2.50;;;2.30;;
32365;SDS011;18837;46.832;16.838;2023-03-23T00:43:41;2.57;;;2.23;;
32365;SDS011;18837;46.832;16.838;2023-03-23T00:46:08;2.60;;;2.40;;
32365;SDS011;18837;46.832;16.838;2023-03-23T00:48:37;2.43;;;2.07;;
32365;SDS011;18837;46.832;16.838;2023-03-23T00:51:09;2.60;;;2.40;;
32365;SDS011;18837;46.832;16.838;2023-03-23T00:53:36;2.57;;;2.33;;
32365;SDS011;18837;46.832;16.838;2023-03-23T00:56:03;2.50;;;2.20;;
32365;SDS011;18837;46.832;16.838;2023-03-23T00:58:29;2.90;;;2.60;;
32365;SDS011;18837;46.832;16.838;2023-03-23T01:00:55;2.43;;;2.23;;
32365;SDS011;18837;46.832;16.838;2023-03-23T01:03:21;2.70;;;2.33;;
32365;SDS011;18837;46.832;16.838;2023-03-23T01:05:50;2.30;;;2.10;;
32365;SDS011;18837;46.832;16.838;2023-03-23T01:08:17;2.97;;;2.50;;
32365;SDS011;18837;46.832;16.838;2023-03-23T01:10:44;3.57;;;2.60;;
32365;SDS011;18837;46.832;16.838;2023-03-23T01:13:10;2.70;;;2.50;;
32365;SDS011;18837;46.832;16.838;2023-03-23T01:15:37;2.60;;;2.33;;
32365;SDS011;18837;46.832;16.838;2023-03-23T01:18:03;2.40;;;2.20;;
32365;SDS011;18837;46.832;16.838;2023-03-23T01:20:34;2.50;;;2.30;;
32365;SDS011;18837;46.832;16.838;2023-03-23T01:23:06;2.80;;;2.30;;
32365;SDS011;18837;46.832;16.838;2023-03-23T01:25:35;2.63;;;2.43;;
32365;SDS011;18837;46.832;16.838;2023-03-23T01:28:01;3.13;;;2.50;;
32365;SDS011;18837;46.832;16.838;2023-03-23T01:30:27;2.83;;;2.50;;
32365;SDS011;18837;46.832;16.838;2023-03-23T01:32:54;2.47;;;2.23;;
32365;SDS011;18837;46.832;16.838;2023-03-23T01:35:20;3.20;;;2.37;;
32365;SDS011;18837;46.832;16.838;2023-03-23T01:37:46;2.47;;;2.27;;
32365;SDS011;18837;46.832;16.838;2023-03-23T01:40:12;2.50;;;2.30;;
32365;SDS011;18837;46.832;16.838;2023-03-23T01:42:40;3.57;;;2.60;;
32365;SDS011;18837;46.832;16.838;2023-03-23T01:45:26;4.87;;;2.70;;
32365;SDS011;18837;46.832;16.838;2023-03-23T01:50:26;2.40;;;2.20;;
32365;SDS011;18837;46.832;16.838;2023-03-23T01:52:55;3.60;;;2.30;;
32365;SDS011;18837;46.832;16.838;2023-03-23T01:55:27;3.00;;;2.70;;
32365;SDS011;18837;46.832;16.838;2023-03-23T01:57:56;3.30;;;2.60;;
32365;SDS011;18837;46.832;16.838;2023-03-23T02:00:22;3.67;;;2.20;;
32365;SDS011;18837;46.832;16.838;2023-03-23T02:02:50;2.60;;;2.23;;
32365;SDS011;18837;46.832;16.838;2023-03-23T02:05:31;3.07;;;2.77;;
32365;SDS011;18837;46.832;16.838;2023-03-23T02:08:00;2.50;;;2.30;;
32365;SDS011;18837;46.832;16.838;2023-03-23T02:10:30;2.50;;;2.10;;
32365;SDS011;18837;46.832;16.838;2023-03-23T02:12:57;2.90;;;2.40;;
32365;SDS011;18837;46.832;16.838;2023-03-23T02:15:26;2.47;;;2.27;;
32365;SDS011;18837;46.832;16.838;2023-03-23T02:18:17;2.93;;;2.50;;
32365;SDS011;18837;46.832;16.838;2023-03-23T02:35:01;3.90;;;2.23;;
32365;SDS011;18837;46.832;16.838;2023-03-23T02:42:38;2.40;;;2.20;;
32365;SDS011;18837;46.832;16.838;2023-03-23T02:45:08;2.70;;;2.50;;
32365;SDS011;18837;46.832;16.838;2023-03-23T02:47:37;3.67;;;2.63;;
32365;SDS011;18837;46.832;16.838;2023-03-23T02:50:07;2.70;;;2.50;;
32365;SDS011;18837;46.832;16.838;2023-03-23T02:52:36;2.70;;;2.40;;
32365;SDS011;18837;46.832;16.838;2023-03-23T02:55:05;3.37;;;2.50;;
32365;SDS011;18837;46.832;16.838;2023-03-23T02:57:33;4.53;;;2.70;;
32365;SDS011;18837;46.832;16.838;2023-03-23T03:00:00;2.80;;;2.50;;
32365;SDS011;18837;46.832;16.838;2023-03-23T03:02:27;2.90;;;2.60;;
32365;SDS011;18837;46.832;16.838;2023-03-23T03:05:06;2.70;;;2.50;;
32365;SDS011;18837;46.832;16.838;2023-03-23T03:10:32;3.33;;;2.50;;
32365;SDS011;18837;46.832;16.838;2023-03-23T03:15:47;2.80;;;2.60;;
32365;SDS011;18837;46.832;16.838;2023-03-23T03:18:27;2.50;;;2.20;;
32365;SDS011;18837;46.832;16.838;2023-03-23T03:21:06;2.57;;;2.37;;
32365;SDS011;18837;46.832;16.838;2023-03-23T03:23:35;4.63;;;2.70;;
32365;SDS011;18837;46.832;16.838;2023-03-23T03:26:03;3.47;;;2.73;;
32365;SDS011;18837;46.832;16.838;2023-03-23T03:28:30;2.70;;;2.50;;
32365;SDS011;18837;46.832;16.838;2023-03-23T03:30:57;3.70;;;2.80;;
32365;SDS011;18837;46.832;16.838;2023-03-23T03:33:27;3.23;;;2.47;;
32365;SDS011;18837;46.832;16.838;2023-03-23T03:35:59;3.37;;;2.17;;
32365;SDS011;18837;46.832;16.838;2023-03-23T03:38:28;2.40;;;2.20;;
32365;SDS011;18837;46.832;16.838;2023-03-23T03:40:57;3.03;;;2.60;;
32365;SDS011;18837;46.832;16.838;2023-03-23T03:43:25;2.73;;;2.43;;
32365;SDS011;18837;46.832;16.838;2023-03-23T03:45:51;3.27;;;2.07;;
32365;SDS011;18837;46.832;16.838;2023-03-23T03:48:17;3.27;;;2.53;;
32365;SDS011;18837;46.832;16.838;2023-03-23T03:50:43;2.47;;;2.10;;
32365;SDS011;18837;46.832;16.838;2023-03-23T03:53:09;3.00;;;2.60;;
32365;SDS011;18837;46.832;16.838;2023-03-23T03:55:34;4.40;;;3.63;;
32365;SDS011;18837;46.832;16.838;2023-03-23T03:58:01;2.93;;;2.60;;
32365;SDS011;18837;46.832;16.838;2023-03-23T04:00:29;2.70;;;2.40;;
32365;SDS011;18837;46.832;16.838;2023-03-23T04:02:55;3.30;;;2.80;;
32365;SDS011;18837;46.832;16.838;2023-03-23T04:05:21;2.83;;;2.63;;
32365;SDS011;18837;46.832;16.838;2023-03-23T04:07:48;3.03;;;2.63;;
32365;SDS011;18837;46.832;16.838;2023-03-23T04:10:18;5.00;;;2.60;;
32365;SDS011;18837;46.832;16.838;2023-03-23T04:12:46;3.40;;;2.90;;
32365;SDS011;18837;46.832;16.838;2023-03-23T04:15:14;4.03;;;2.87;;
32365;SDS011;18837;46.832;16.838;2023-03-23T04:17:40;3.23;;;2.93;;
32365;SDS011;18837;46.832;16.838;2023-03-23T04:20:07;4.53;;;2.90;;
32365;SDS011;18837;46.832;16.838;2023-03-23T04:22:38;4.27;;;2.97;;
32365;SDS011;18837;46.832;16.838;2023-03-23T04:25:04;3.73;;;3.00;;
32365;SDS011;18837;46.832;16.838;2023-03-23T04:27:32;4.17;;;3.17;;
32365;SDS011;18837;46.832;16.838;2023-03-23T04:29:59;4.20;;;2.90;;
32365;SDS011;18837;46.832;16.838;2023-03-23T04:32:25;3.40;;;3.10;;
32365;SDS011;18837;46.832;16.838;2023-03-23T04:34:53;3.87;;;3.10;;
32365;SDS011;18837;46.832;16.838;2023-03-23T04:37:24;4.10;;;3.00;;
32365;SDS011;18837;46.832;16.838;2023-03-23T04:39:56;5.17;;;3.40;;
32365;SDS011;18837;46.832;16.838;2023-03-23T04:42:29;3.80;;;3.10;;
32365;SDS011;18837;46.832;16.838;2023-03-23T04:44:56;4.93;;;3.33;;
32365;SDS011;18837;46.832;16.838;2023-03-23T04:47:24;4.47;;;3.37;;
32365;SDS011;18837;46.832;16.838;2023-03-23T04:49:54;5.77;;;3.10;;
32365;SDS011;18837;46.832;16.838;2023-03-23T04:52:22;5.47;;;3.30;;
32365;SDS011;18837;46.832;16.838;2023-03-23T04:54:53;4.20;;;3.03;;
32365;SDS011;18837;46.832;16.838;2023-03-23T04:57:21;4.03;;;2.93;;
32365;SDS011;18837;46.832;16.838;2023-03-23T04:59:50;3.87;;;2.97;;
32365;SDS011;18837;46.832;16.838;2023-03-23T05:02:16;6.40;;;3.10;;
32365;SDS011;18837;46.832;16.838;2023-03-23T05:04:43;3.20;;;2.90;;
32365;SDS011;18837;46.832;16.838;2023-03-23T05:07:10;4.40;;;2.80;;
32365;SDS011;18837;46.832;16.838;2023-03-23T05:09:36;2.97;;;2.70;;
32365;SDS011;18837;46.832;16.838;2023-03-23T05:12:05;3.23;;;2.93;;
32365;SDS011;18837;46.832;16.838;2023-03-23T05:14:33;5.03;;;2.83;;
32365;SDS011;18837;46.832;16.838;2023-03-23T05:16:59;3.63;;;2.87;;
32365;SDS011;18837;46.832;16.838;2023-03-23T05:19:25;3.20;;;2.90;;
32365;SDS011;18837;46.832;16.838;2023-03-23T05:21:59;4.03;;;3.00;;
32365;SDS011;18837;46.832;16.838;2023-03-23T05:24:29;5.47;;;3.00;;
32365;SDS011;18837;46.832;16.838;2023-03-23T05:26:57;4.17;;;2.80;;
32365;SDS011;18837;46.832;16.838;2023-03-23T05:29:24;3.50;;;2.77;;
32365;SDS011;18837;46.832;16.838;2023-03-23T05:31:51;3.57;;;3.27;;
32365;SDS011;18837;46.832;16.838;2023-03-23T05:34:18;5.70;;;3.43;;
32365;SDS011;18837;46.832;16.838;2023-03-23T05:36:44;3.60;;;2.97;;
32365;SDS011;18837;46.832;16.838;2023-03-23T05:39:11;4.97;;;3.07;;
32365;SDS011;18837;46.832;16.838;2023-03-23T05:41:38;3.77;;;3.37;;
32365;SDS011;18837;46.832;16.838;2023-03-23T05:44:04;3.97;;;2.93;;
32365;SDS011;18837;46.832;16.838;2023-03-23T05:46:30;3.63;;;3.03;;
32365;SDS011;18837;46.832;16.838;2023-03-23T05:48:56;6.03;;;3.07;;
32365;SDS011;18837;46.832;16.838;2023-03-23T05:51:21;4.43;;;3.07;;
32365;SDS011;18837;46.832;16.838;2023-03-23T05:53:47;4.30;;;2.93;;
32365;SDS011;18837;46.832;16.838;2023-03-23T05:56:13;3.73;;;2.90;;
32365;SDS011;18837;46.832;16.838;2023-03-23T05:58:42;4.70;;;3.00;;
32365;SDS011;18837;46.832;16.838;2023-03-23T06:01:08;4.37;;;3.17;;
32365;SDS011;18837;46.832;16.838;2023-03-23T06:03:34;3.90;;;3.13;;
32365;SDS011;18837;46.832;16.838;2023-03-23T06:06:02;6.00;;;3.80;;
32365;SDS011;18837;46.832;16.838;2023-03-23T06:08:29;4.03;;;3.23;;
32365;SDS011;18837;46.832;16.838;2023-03-23T06:10:55;4.87;;;3.50;;
32365;SDS011;18837;46.832;16.838;2023-03-23T06:13:21;5.07;;;3.77;;
32365;SDS011;18837;46.832;16.838;2023-03-23T06:15:48;4.13;;;3.57;;
32365;SDS011;18837;46.832;16.838;2023-03-23T06:18:14;4.13;;;3.33;;
32365;SDS011;18837;46.832;16.838;2023-03-23T06:20:40;4.43;;;3.27;;
32365;SDS011;18837;46.832;16.838;2023-03-23T06:23:08;5.30;;;3.03;;
32365;SDS011;18837;46.832;16.838;2023-03-23T06:25:34;4.73;;;3.33;;
32365;SDS011;18837;46.832;16.838;2023-03-23T06:28:00;5.87;;;3.50;;
32365;SDS011;18837;46.832;16.838;2023-03-23T06:30:26;4.47;;;3.17;;
32365;SDS011;18837;46.832;16.838;2023-03-23T06:32:52;3.97;;;3.17;;
32365;SDS011;18837;46.832;16.838;2023-03-23T06:35:18;5.30;;;2.87;;
32365;SDS011;18837;46.832;16.838;2023-03-23T06:37:44;3.50;;;3.00;;
32365;SDS011;18837;46.832;16.838;2023-03-23T06:40:10;5.00;;;3.23;;
32365;SDS011;18837;46.832;16.838;2023-03-23T06:42:36;4.70;;;3.87;;
32365;SDS011;18837;46.832;16.838;2023-03-23T06:45:03;3.90;;;3.50;;
32365;SDS011;18837;46.832;16.838;2023-03-23T06:47:29;6.00;;;3.70;;
32365;SDS011;18837;46.832;16.838;2023-03-23T06:49:56;5.97;;;3.77;;
32365;SDS011;18837;46.832;16.838;2023-03-23T06:52:23;7.90;;;3.93;;
32365;SDS011;18837;46.832;16.838;2023-03-23T06:54:50;3.90;;;3.20;;
32365;SDS011;18837;46.832;16.838;2023-03-23T06:57:17;8.07;;;3.90;;
32365;SDS011;18837;46.832;16.838;2023-03-23T06:59:44;5.00;;;3.50;;
32365;SDS011;18837;46.832;16.838;2023-03-23T07:02:14;6.23;;;3.63;;
32365;SDS011;18837;46.832;16.838;2023-03-23T07:04:40;4.67;;;2.93;;
32365;SDS011;18837;46.832;16.838;2023-03-23T07:07:09;4.77;;;3.50;;
32365;SDS011;18837;46.832;16.838;2023-03-23T07:09:39;5.30;;;3.17;;
32365;SDS011;18837;46.832;16.838;2023-03-23T07:12:06;4.30;;;3.50;;
32365;SDS011;18837;46.832;16.838;2023-03-23T07:14:32;4.17;;;3.20;;
32365;SDS011;18837;46.832;16.838;2023-03-23T07:16:58;4.37;;;3.07;;
32365;SDS011;18837;46.832;16.838;2023-03-23T07:19:24;8.13;;;3.73;;
32365;SDS011;18837;46.832;16.838;2023-03-23T07:21:50;4.20;;;3.30;;
32365;SDS011;18837;46.832;16.838;2023-03-23T07:24:15;4.37;;;3.13;;
32365;SDS011;18837;46.832;16.838;2023-03-23T07:26:42;4.20;;;3.30;;
32365;SDS011;18837;46.832;16.838;2023-03-23T07:29:08;7.77;;;3.63;;
32365;SDS011;18837;46.832;16.838;2023-03-23T07:31:34;4.03;;;3.20;;
32365;SDS011;18837;46.832;16.838;2023-03-23T07:34:01;3.43;;;3.13;;
32365;SDS011;18837;46.832;16.838;2023-03-23T07:36:28;5.43;;;3.10;;
32365;SDS011;18837;46.832;16.838;2023-03-23T07:38:57;5.53;;;3.63;;
32365;SDS011;18837;46.832;16.838;2023-03-23T07:41:23;4.73;;;3.67;;
32365;SDS011;18837;46.832;16.838;2023-03-23T07:43:49;4.37;;;3.30;;
32365;SDS011;18837;46.832;16.838;2023-03-23T07:46:15;3.60;;;3.30;;
32365;SDS011;18837;46.832;16.838;2023-03-23T07:48:41;3.50;;;3.10;;
32365;SDS011;18837;46.832;16.838;2023-03-23T07:51:07;3.37;;;2.90;;
32365;SDS011;18837;46.832;16.838;2023-03-23T07:53:33;3.87;;;3.53;;
32365;SDS011;18837;46.832;16.838;2023-03-23T07:56:00;3.37;;;3.03;;
32365;SDS011;18837;46.832;16.838;2023-03-23T07:58:28;3.80;;;3.40;;
32365;SDS011;18837;46.832;16.838;2023-03-23T08:00:54;5.00;;;3.93;;
32365;SDS011;18837;46.832;16.838;2023-03-23T08:03:22;4.70;;;3.43;;
32365;SDS011;18837;46.832;16.838;2023-03-23T08:05:48;4.67;;;4.27;;
32365;SDS011;18837;46.832;16.838;2023-03-23T08:08:15;5.20;;;4.57;;
32365;SDS011;18837;46.832;16.838;2023-03-23T08:10:43;4.63;;;3.97;;
32365;SDS011;18837;46.832;16.838;2023-03-23T08:13:09;5.07;;;4.03;;
32365;SDS011;18837;46.832;16.838;2023-03-23T08:15:35;4.73;;;4.13;;
32365;SDS011;18837;46.832;16.838;2023-03-23T08:18:03;4.50;;;3.70;;
32365;SDS011;18837;46.832;16.838;2023-03-23T08:20:30;4.67;;;3.87;;
32365;SDS011;18837;46.832;16.838;2023-03-23T08:22:56;4.83;;;4.03;;
32365;SDS011;18837;46.832;16.838;2023-03-23T08:25:23;5.60;;;4.00;;
32365;SDS011;18837;46.832;16.838;2023-03-23T08:27:51;5.63;;;3.90;;
32365;SDS011;18837;46.832;16.838;2023-03-23T08:30:18;6.47;;;3.83;;
32365;SDS011;18837;46.832;16.838;2023-03-23T08:32:47;6.67;;;4.53;;
32365;SDS011;18837;46.832;16.838;2023-03-23T08:35:13;5.23;;;4.57;;
32365;SDS011;18837;46.832;16.838;2023-03-23T08:37:40;4.43;;;4.03;;
32365;SDS011;18837;46.832;16.838;2023-03-23T08:40:07;4.77;;;4.27;;
32365;SDS011;18837;46.832;16.838;2023-03-23T08:42:38;6.03;;;4.73;;
32365;SDS011;18837;46.832;16.838;2023-03-23T08:45:07;5.27;;;4.30;;
32365;SDS011;18837;46.832;16.838;2023-03-23T08:47:40;5.33;;;4.57;;
32365;SDS011;18837;46.832;16.838;2023-03-23T08:50:15;7.27;;;5.07;;
32365;SDS011;18837;46.832;16.838;2023-03-23T08:52:43;6.60;;;4.97;;
32365;SDS011;18837;46.832;16.838;2023-03-23T08:55:08;6.17;;;4.90;;
32365;SDS011;18837;46.832;16.838;2023-03-23T08:57:35;7.23;;;5.00;;
32365;SDS011;18837;46.832;16.838;2023-03-23T09:00:03;5.83;;;4.73;;
32365;SDS011;18837;46.832;16.838;2023-03-23T09:02:39;7.33;;;4.83;;
32365;SDS011;18837;46.832;16.838;2023-03-23T09:05:08;6.07;;;4.93;;
32365;SDS011;18837;46.832;16.838;2023-03-23T09:07:36;4.73;;;4.27;;
32365;SDS011;18837;46.832;16.838;2023-03-23T09:10:06;5.50;;;5.00;;
32365;SDS011;18837;46.832;16.838;2023-03-23T09:12:32;4.93;;;4.40;;
32365;SDS011;18837;46.832;16.838;2023-03-23T09:14:58;5.60;;;4.70;;
32365;SDS011;18837;46.832;16.838;2023-03-23T09:17:28;5.43;;;4.73;;
32365;SDS011;18837;46.832;16.838;2023-03-23T09:19:56;6.60;;;5.60;;
32365;SDS011;18837;46.832;16.838;2023-03-23T09:22:23;8.03;;;5.90;;
32365;SDS011;18837;46.832;16.838;2023-03-23T09:24:49;6.37;;;5.10;;
32365;SDS011;18837;46.832;16.838;2023-03-23T09:27:16;5.87;;;5.27;;
32365;SDS011;18837;46.832;16.838;2023-03-23T09:29:42;6.63;;;4.87;;
32365;SDS011;18837;46.832;16.838;2023-03-23T09:32:10;8.13;;;5.43;;
32365;SDS011;18837;46.832;16.838;2023-03-23T09:34:38;8.17;;;5.63;;
32365;SDS011;18837;46.832;16.838;2023-03-23T09:37:04;6.43;;;5.50;;
32365;SDS011;18837;46.832;16.838;2023-03-23T09:39:31;6.23;;;5.60;;
32365;SDS011;18837;46.832;16.838;2023-03-23T09:44:32;8.03;;;6.10;;
32365;SDS011;18837;46.832;16.838;2023-03-23T09:47:14;7.30;;;5.90;;
32365;SDS011;18837;46.832;16.838;2023-03-23T09:50:00;7.47;;;5.50;;
32365;SDS011;18837;46.832;16.838;2023-03-23T09:52:37;15.20;;;6.93;;
32365;SDS011;18837;46.832;16.838;2023-03-23T09:55:09;7.47;;;6.07;;
32365;SDS011;18837;46.832;16.838;2023-03-23T10:00:26;9.23;;;6.07;;
32365;SDS011;18837;46.832;16.838;2023-03-23T10:05:41;6.23;;;5.20;;
32365;SDS011;18837;46.832;16.838;2023-03-23T10:08:20;6.63;;;4.73;;
32365;SDS011;18837;46.832;16.838;2023-03-23T10:16:12;6.80;;;5.63;;
32365;SDS011;18837;46.832;16.838;2023-03-23T10:21:50;5.70;;;5.13;;
32365;SDS011;18837;46.832;16.838;2023-03-23T10:24:21;8.03;;;5.70;;
32365;SDS011;18837;46.832;16.838;2023-03-23T10:27:07;6.13;;;5.30;;
32365;SDS011;18837;46.832;16.838;2023-03-23T10:30:02;6.63;;;5.93;;
32365;SDS011;18837;46.832;16.838;2023-03-23T10:32:41;8.67;;;5.90;;
32365;SDS011;18837;46.832;16.838;2023-03-23T10:35:35;6.40;;;5.17;;
32365;SDS011;18837;46.832;16.838;2023-03-23T10:38:04;6.63;;;4.93;;
32365;SDS011;18837;46.832;16.838;2023-03-23T10:40:38;6.27;;;5.37;;
32365;SDS011;18837;46.832;16.838;2023-03-23T10:43:24;6.10;;;5.50;;
32365;SDS011;18837;46.832;16.838;2023-03-23T10:45:55;7.40;;;5.67;;
32365;SDS011;18837;46.832;16.838;2023-03-23T10:48:37;5.77;;;5.17;;
32365;SDS011;18837;46.832;16.838;2023-03-23T10:51:04;5.80;;;4.83;;
32365;SDS011;18837;46.832;16.838;2023-03-23T10:53:38;6.33;;;5.73;;
32365;SDS011;18837;46.832;16.838;2023-03-23T10:59:15;5.30;;;4.80;;
32365;SDS011;18837;46.832;16.838;2023-03-23T11:01:55;7.80;;;5.33;;
32365;SDS011;18837;46.832;16.838;2023-03-23T11:04:24;6.80;;;5.20;;
32365;SDS011;18837;46.832;16.838;2023-03-23T11:06:51;5.50;;;5.00;;
32365;SDS011;18837;46.832;16.838;2023-03-23T11:09:20;6.60;;;4.77;;
32365;SDS011;18837;46.832;16.838;2023-03-23T11:11:57;6.70;;;6.00;;
32365;SDS011;18837;46.832;16.838;2023-03-23T11:14:25;7.57;;;5.73;;
32365;SDS011;18837;46.832;16.838;2023-03-23T11:16:57;8.27;;;5.57;;
32365;SDS011;18837;46.832;16.838;2023-03-23T11:19:30;8.43;;;6.07;;
32365;SDS011;18837;46.832;16.838;2023-03-23T11:22:06;6.47;;;5.07;;
32365;SDS011;18837;46.832;16.838;2023-03-23T11:24:42;8.00;;;5.93;;
32365;SDS011;18837;46.832;16.838;2023-03-23T11:27:10;6.70;;;5.38;;
32365;SDS011;18837;46.832;16.838;2023-03-23T11:29:37;10.33;;;6.80;;
32365;SDS011;18837;46.832;16.838;2023-03-23T11:32:15;7.43;;;5.73;;
32365;SDS011;18837;46.832;16.838;2023-03-23T11:34:46;9.13;;;5.90;;
32365;SDS011;18837;46.832;16.838;2023-03-23T11:37:15;7.60;;;5.57;;
32365;SDS011;18837;46.832;16.838;2023-03-23T11:42:37;5.63;;;5.13;;
32365;SDS011;18837;46.832;16.838;2023-03-23T11:50:28;7.30;;;5.90;;
32365;SDS011;18837;46.832;16.838;2023-03-23T11:58:13;6.63;;;5.23;;
32365;SDS011;18837;46.832;16.838;2023-03-23T12:00:50;6.30;;;5.70;;
32365;SDS011;18837;46.832;16.838;2023-03-23T12:03:22;5.83;;;5.23;;
32365;SDS011;18837;46.832;16.838;2023-03-23T12:06:06;7.30;;;5.87;;
32365;SDS011;18837;46.832;16.838;2023-03-23T12:14:38;6.70;;;5.63;;
32365;SDS011;18837;46.832;16.838;2023-03-23T12:22:51;6.67;;;5.60;;
32365;SDS011;18837;46.832;16.838;2023-03-23T12:28:27;5.30;;;4.80;;
32365;SDS011;18837;46.832;16.838;2023-03-23T12:42:11;7.37;;;6.10;;
32365;SDS011;18837;46.832;16.838;2023-03-23T12:47:45;7.53;;;6.27;;
32365;SDS011;18837;46.832;16.838;2023-03-23T12:53:35;9.23;;;7.80;;
32365;SDS011;18837;46.832;16.838;2023-03-23T12:59:01;7.17;;;6.47;;
32365;SDS011;18837;46.832;16.838;2023-03-23T13:01:54;6.50;;;5.77;;
32365;SDS011;18837;46.832;16.838;2023-03-23T13:04:32;7.30;;;6.27;;
32365;SDS011;18837;46.832;16.838;2023-03-23T13:07:03;6.67;;;5.73;;
32365;SDS011;18837;46.832;16.838;2023-03-23T13:12:38;11.10;;;6.40;;
32365;SDS011;18837;46.832;16.838;2023-03-23T13:15:29;6.50;;;5.27;;
32365;SDS011;18837;46.832;16.838;2023-03-23T13:23:31;6.77;;;5.03;;
32365;SDS011;18837;46.832;16.838;2023-03-23T13:26:14;5.60;;;5.10;;
32365;SDS011;18837;46.832;16.838;2023-03-23T13:28:54;5.07;;;4.57;;
32365;SDS011;18837;46.832;16.838;2023-03-23T13:31:35;5.30;;;4.73;;
32365;SDS011;18837;46.832;16.838;2023-03-23T13:34:10;4.77;;;4.37;;
32365;SDS011;18837;46.832;16.838;2023-03-23T13:36:42;5.23;;;4.70;;
32365;SDS011;18837;46.832;16.838;2023-03-23T13:39:20;5.20;;;4.70;;
32365;SDS011;18837;46.832;16.838;2023-03-23T13:42:33;6.63;;;4.80;;
32365;SDS011;18837;46.832;16.838;2023-03-23T13:47:15;5.27;;;4.67;;
32365;SDS011;18837;46.832;16.838;2023-03-23T13:49:57;5.70;;;5.20;;
32365;SDS011;18837;46.832;16.838;2023-03-23T13:52:46;6.67;;;4.80;;
32365;SDS011;18837;46.832;16.838;2023-03-23T14:05:36;4.93;;;4.43;;
32365;SDS011;18837;46.832;16.838;2023-03-23T14:11:01;6.13;;;5.00;;
32365;SDS011;18837;46.832;16.838;2023-03-23T14:18:40;5.83;;;4.90;;
32365;SDS011;18837;46.832;16.838;2023-03-23T14:21:17;5.53;;;4.97;;
32365;SDS011;18837;46.832;16.838;2023-03-23T14:23:47;6.03;;;4.77;;
32365;SDS011;18837;46.832;16.838;2023-03-23T14:26:17;5.50;;;4.80;;
32365;SDS011;18837;46.832;16.838;2023-03-23T14:28:49;6.03;;;4.87;;
32365;SDS011;18837;46.832;16.838;2023-03-23T14:33:47;6.30;;;5.70;;
32365;SDS011;18837;46.832;16.838;2023-03-23T14:36:24;6.30;;;5.70;;
32365;SDS011;18837;46.832;16.838;2023-03-23T14:41:45;5.70;;;4.87;;
32365;SDS011;18837;46.832;16.838;2023-03-23T14:44:20;6.33;;;5.30;;
32365;SDS011;18837;46.832;16.838;2023-03-23T14:46:55;8.43;;;6.17;;
32365;SDS011;18837;46.832;16.838;2023-03-23T14:52:17;7.30;;;5.83;;
32365;SDS011;18837;46.832;16.838;2023-03-23T14:54:44;7.03;;;6.10;;
32365;SDS011;18837;46.832;16.838;2023-03-23T15:49:04;8.13;;;5.30;;
32365;SDS011;18837;46.832;16.838;2023-03-23T15:51:34;5.97;;;5.03;;
32365;SDS011;18837;46.832;16.838;2023-03-23T15:54:01;5.13;;;4.67;;
32365;SDS011;18837;46.832;16.838;2023-03-23T15:56:28;5.33;;;4.83;;
32365;SDS011;18837;46.832;16.838;2023-03-23T15:58:56;5.90;;;4.53;;
32365;SDS011;18837;46.832;16.838;2023-03-23T16:01:25;7.97;;;5.43;;
32365;SDS011;18837;46.832;16.838;2023-03-23T16:06:27;9.93;;;5.23;;
32365;SDS011;18837;46.832;16.838;2023-03-23T16:09:05;31.30;;;25.13;;
32365;SDS011;18837;46.832;16.838;2023-03-23T16:11:35;17.73;;;13.20;;
32365;SDS011;18837;46.832;16.838;2023-03-23T16:19:45;11.97;;;10.23;;
32365;SDS011;18837;46.832;16.838;2023-03-23T16:22:11;12.83;;;10.50;;
32365;SDS011;18837;46.832;16.838;2023-03-23T16:24:37;12.80;;;10.30;;
32365;SDS011;18837;46.832;16.838;2023-03-23T16:27:03;11.17;;;9.77;;
32365;SDS011;18837;46.832;16.838;2023-03-23T16:29:29;11.83;;;9.83;;
32365;SDS011;18837;46.832;16.838;2023-03-23T16:31:55;11.87;;;10.50;;
32365;SDS011;18837;46.832;16.838;2023-03-23T16:34:21;13.07;;;10.43;;
32365;SDS011;18837;46.832;16.838;2023-03-23T16:36:47;11.73;;;9.50;;
32365;SDS011;18837;46.832;16.838;2023-03-23T16:39:13;10.97;;;9.27;;
32365;SDS011;18837;46.832;16.838;2023-03-23T16:41:42;12.03;;;9.57;;
32365;SDS011;18837;46.832;16.838;2023-03-23T16:44:09;10.80;;;9.00;;
32365;SDS011;18837;46.832;16.838;2023-03-23T16:46:35;10.43;;;8.73;;
32365;SDS011;18837;46.832;16.838;2023-03-23T16:49:00;10.17;;;8.20;;
32365;SDS011;18837;46.832;16.838;2023-03-23T16:51:28;9.60;;;8.70;;
32365;SDS011;18837;46.832;16.838;2023-03-23T16:53:58;10.43;;;8.30;;
32365;SDS011;18837;46.832;16.838;2023-03-23T16:56:24;9.00;;;7.73;;
32365;SDS011;18837;46.832;16.838;2023-03-23T16:58:49;9.07;;;8.03;;
32365;SDS011;18837;46.832;16.838;2023-03-23T17:01:15;8.17;;;7.43;;
32365;SDS011;18837;46.832;16.838;2023-03-23T17:03:41;8.33;;;7.37;;
32365;SDS011;18837;46.832;16.838;2023-03-23T17:06:07;7.70;;;6.90;;
32365;SDS011;18837;46.832;16.838;2023-03-23T17:08:35;7.70;;;6.90;;
32365;SDS011;18837;46.832;16.838;2023-03-23T17:11:01;7.93;;;7.13;;
32365;SDS011;18837;46.832;16.838;2023-03-23T17:13:26;7.97;;;7.17;;
32365;SDS011;18837;46.832;16.838;2023-03-23T17:15:53;8.43;;;7.50;;
32365;SDS011;18837;46.832;16.838;2023-03-23T17:18:21;7.47;;;6.77;;
32365;SDS011;18837;46.832;16.838;2023-03-23T17:20:51;8.17;;;6.77;;
32365;SDS011;18837;46.832;16.838;2023-03-23T17:23:18;7.70;;;6.90;;
32365;SDS011;18837;46.832;16.838;2023-03-23T17:25:45;7.67;;;6.87;;
32365;SDS011;18837;46.832;16.838;2023-03-23T17:28:30;7.77;;;6.70;;
32365;SDS011;18837;46.832;16.838;2023-03-23T17:30:56;7.23;;;6.50;;
32365;SDS011;18837;46.832;16.838;2023-03-23T17:33:22;7.00;;;6.30;;
32365;SDS011;18837;46.832;16.838;2023-03-23T17:35:48;6.93;;;6.23;;
32365;SDS011;18837;46.832;16.838;2023-03-23T17:38:16;6.73;;;6.13;;
32365;SDS011;18837;46.832;16.838;2023-03-23T17:40:42;8.03;;;6.90;;
32365;SDS011;18837;46.832;16.838;2023-03-23T17:43:10;7.43;;;6.57;;
32365;SDS011;18837;46.832;16.838;2023-03-23T17:45:36;6.87;;;6.17;;
32365;SDS011;18837;46.832;16.838;2023-03-23T17:48:02;7.07;;;6.37;;
32365;SDS011;18837;46.832;16.838;2023-03-23T17:50:32;6.60;;;5.90;;
32365;SDS011;18837;46.832;16.838;2023-03-23T17:52:58;6.90;;;6.20;;
32365;SDS011;18837;46.832;16.838;2023-03-23T17:55:25;6.43;;;5.80;;
32365;SDS011;18837;46.832;16.838;2023-03-23T17:57:57;6.87;;;5.97;;
32365;SDS011;18837;46.832;16.838;2023-03-23T18:03:17;7.30;;;6.20;;
32365;SDS011;18837;46.832;16.838;2023-03-23T18:05:43;6.40;;;5.80;;